createdAt,value
2023-03-15T00:01:49.286Z,97429.78
2023-03-15T00:04:22.488Z,97439.22
2023-03-15T00:06:56.130Z,97446.75
2023-03-15T00:09:29.179Z,97450.72
2023-03-15T00:12:02.223Z,97446.13
2023-03-15T00:14:38.007Z,97448.59
2023-03-15T00:17:11.783Z,97474.25
2023-03-15T00:19:44.831Z,97480.59
2023-03-15T00:22:17.839Z,97483.69
2023-03-15T00:24:50.914Z,97486.88
2023-03-15T00:27:23.904Z,97491.56
2023-03-15T00:29:58.272Z,97500.56
2023-03-15T00:32:31.786Z,97507.59
2023-03-15T00:35:05.481Z,97523.47
2023-03-15T00:37:38.593Z,97518.84
2023-03-15T00:40:13.225Z,97527.13
2023-03-15T00:42:49.998Z,97534.69
2023-03-15T00:45:24.543Z,97543.28
2023-03-15T00:47:57.584Z,97550.41
2023-03-15T00:50:30.632Z,97554.38
2023-03-15T00:53:03.657Z,97562.75
2023-03-15T00:55:37.113Z,97565.16
2023-03-15T00:58:10.413Z,97567.06
2023-03-15T01:00:44.887Z,97566.03
2023-03-15T01:03:17.890Z,97572.75
2023-03-15T01:05:50.910Z,97584.06
2023-03-15T01:08:24.222Z,97589.53
2023-03-15T01:10:57.369Z,97595.50
2023-03-15T01:13:30.535Z,97595.38
2023-03-15T01:16:05.730Z,97607.50
2023-03-15T01:18:39.618Z,97610.81
2023-03-15T01:21:15.233Z,97614.44
2023-03-15T01:23:48.557Z,97618.72
2023-03-15T01:26:21.975Z,97624.44
2023-03-15T01:28:56.183Z,97625.53
2023-03-15T01:31:32.119Z,97622.28
2023-03-15T01:34:05.191Z,97631.28
2023-03-15T01:36:38.271Z,97638.06
2023-03-15T01:39:11.347Z,97641.13
2023-03-15T01:41:44.393Z,97637.69
2023-03-15T01:44:19.346Z,97635.56
2023-03-15T01:46:53.997Z,97646.97
2023-03-15T01:49:31.187Z,97646.19
2023-03-15T01:52:09.184Z,97650.13
2023-03-15T01:54:45.203Z,97651.25
2023-03-15T01:57:23.595Z,97651.28
2023-03-15T02:00:07.196Z,97649.88
2023-03-15T02:02:47.125Z,97662.50
2023-03-15T02:05:23.443Z,97665.44
2023-03-15T02:07:57.193Z,97660.38
2023-03-15T02:10:36.935Z,97679.06
2023-03-15T02:13:10.764Z,97686.41
2023-03-15T02:15:46.604Z,97684.47
2023-03-15T02:18:22.272Z,97685.59
2023-03-15T02:21:06.376Z,97685.47
2023-03-15T02:23:39.544Z,97685.31
2023-03-15T02:26:23.792Z,97698.25
2023-03-15T02:28:58.256Z,97692.69
2023-03-15T02:31:37.885Z,97700.03
2023-03-15T02:34:11.309Z,97702.56
2023-03-15T02:36:44.570Z,97701.91
2023-03-15T02:39:20.689Z,97712.41
2023-03-15T02:41:56.776Z,97719.72
2023-03-15T02:44:35.177Z,97709.22
2023-03-15T02:47:13.869Z,97716.16
2023-03-15T02:49:53.740Z,97720.22
2023-03-15T02:52:26.878Z,97720.50
2023-03-15T02:54:59.894Z,97719.72
2023-03-15T02:57:32.897Z,97730.34
2023-03-15T03:00:14.344Z,97725.53
2023-03-15T03:02:49.497Z,97730.09
2023-03-15T03:05:23.120Z,97737.66
2023-03-15T03:07:56.175Z,97744.25
2023-03-15T03:10:29.852Z,97743.75
2023-03-15T03:13:02.890Z,97751.44
2023-03-15T03:15:37.240Z,97761.66
2023-03-15T03:18:10.225Z,97769.84
2023-03-15T03:20:46.153Z,97769.88
2023-03-15T03:23:19.644Z,97778.34
2023-03-15T03:25:53.918Z,97786.53
2023-03-15T03:28:30.202Z,97792.63
2023-03-15T03:31:04.816Z,97800.56
2023-03-15T03:33:37.898Z,97802.72
2023-03-15T03:36:13.098Z,97802.59
2023-03-15T03:38:48.029Z,97811.94
2023-03-15T03:41:22.035Z,97808.91
2023-03-15T03:43:55.086Z,97815.75
2023-03-15T03:46:29.553Z,97824.69
2023-03-15T03:49:02.873Z,97827.38
2023-03-15T03:51:36.338Z,97823.44
2023-03-15T03:54:09.393Z,97832.94
2023-03-15T03:56:42.386Z,97839.75
2023-03-15T03:59:15.828Z,97841.50
2023-03-15T04:01:51.228Z,97853.13
2023-03-15T04:04:26.510Z,97859.81
2023-03-15T04:06:59.621Z,97852.88
2023-03-15T04:09:37.247Z,97863.75
2023-03-15T04:12:11.119Z,97864.25
2023-03-15T04:14:44.231Z,97870.94
2023-03-15T04:17:18.926Z,97873.22
2023-03-15T04:19:51.981Z,97879.41
2023-03-15T04:22:25.173Z,97881.94
2023-03-15T04:24:58.548Z,97886.09
2023-03-15T04:27:31.795Z,97887.88
2023-03-15T04:30:05.806Z,97889.78
2023-03-15T04:32:42.512Z,97893.94
2023-03-15T04:35:15.748Z,97891.53
2023-03-15T04:37:48.783Z,97890.50
2023-03-15T04:40:24.002Z,97899.63
2023-03-15T04:42:57.840Z,97904.06
2023-03-15T04:45:31.748Z,97901.13
2023-03-15T04:48:06.575Z,97907.44
2023-03-15T04:50:39.619Z,97910.22
2023-03-15T04:53:12.724Z,97911.72
2023-03-15T04:55:45.881Z,97910.56
2023-03-15T04:58:20.452Z,97912.28
2023-03-15T05:00:54.961Z,97911.03
2023-03-15T05:03:29.635Z,97916.16
2023-03-15T05:06:08.014Z,97918.44
2023-03-15T05:08:41.588Z,97914.72
2023-03-15T05:11:15.020Z,97913.31
2023-03-15T05:13:48.120Z,97926.16
2023-03-15T05:16:21.264Z,97919.56
2023-03-15T05:18:57.072Z,97917.25
2023-03-15T05:21:30.065Z,97922.53
2023-03-15T05:24:03.992Z,97922.25
2023-03-15T05:26:36.974Z,97921.69
2023-03-15T05:29:10.003Z,97923.81
2023-03-15T05:31:43.119Z,97930.97
2023-03-15T05:34:17.508Z,97930.09
2023-03-15T05:36:51.152Z,97925.38
2023-03-15T05:39:24.424Z,97929.28
2023-03-15T05:41:57.462Z,97926.59
2023-03-15T05:44:30.497Z,97933.72
2023-03-15T05:47:03.528Z,97931.66
2023-03-15T05:49:37.993Z,97936.91
2023-03-15T05:52:11.154Z,97930.56
2023-03-15T05:54:44.385Z,97933.56
2023-03-15T05:57:17.409Z,97927.81
2023-03-15T05:59:50.492Z,97931.97
2023-03-15T06:02:23.728Z,97942.34
2023-03-15T06:04:58.116Z,97943.81
2023-03-15T06:07:31.162Z,97951.38
2023-03-15T06:10:04.970Z,97947.50
2023-03-15T06:12:38.060Z,97954.34
2023-03-15T06:15:12.452Z,97957.19
2023-03-15T06:17:45.461Z,97947.44
2023-03-15T06:20:20.284Z,97956.25
2023-03-15T06:22:53.316Z,97957.00
2023-03-15T06:25:26.387Z,97956.31
2023-03-15T06:27:59.548Z,97957.69
2023-03-15T06:30:32.616Z,97957.03
2023-03-15T06:33:05.703Z,97954.84
2023-03-15T06:35:40.825Z,97964.66
2023-03-15T06:38:15.257Z,97961.78
2023-03-15T06:40:48.298Z,97967.53
2023-03-15T06:43:21.473Z,97976.31
2023-03-15T06:45:55.878Z,97976.56
2023-03-15T06:48:29.614Z,97979.53
2023-03-15T06:51:05.889Z,97981.94
2023-03-15T06:53:38.951Z,97983.50
2023-03-15T06:56:12.413Z,97985.34
2023-03-15T06:58:45.477Z,97995.00
2023-03-15T07:01:18.482Z,97988.00
2023-03-15T07:03:51.548Z,97986.22
2023-03-15T07:06:27.683Z,97985.91
2023-03-15T07:09:00.757Z,97985.69
2023-03-15T07:11:34.392Z,97989.88
2023-03-15T07:14:07.457Z,97995.59
2023-03-15T07:16:40.539Z,97996.00
2023-03-15T07:19:13.591Z,97996.91
2023-03-15T07:21:48.006Z,97991.31
2023-03-15T07:24:21.061Z,97997.03
2023-03-15T07:26:56.399Z,97994.06
2023-03-15T07:29:29.482Z,97999.16
2023-03-15T07:32:02.925Z,98004.47
2023-03-15T07:34:36.001Z,97996.00
2023-03-15T07:37:10.965Z,97995.97
2023-03-15T07:39:44.132Z,98006.34
2023-03-15T07:42:17.528Z,98000.84
2023-03-15T07:44:50.748Z,98000.94
2023-03-15T07:47:23.825Z,98009.78
2023-03-15T07:49:56.845Z,98000.94
2023-03-15T07:52:31.560Z,98012.91
2023-03-15T07:55:08.318Z,98008.13
2023-03-15T07:57:41.376Z,98012.34
2023-03-15T08:00:16.141Z,98016.97
2023-03-15T08:02:49.325Z,98005.94
2023-03-15T08:05:22.872Z,98023.06
2023-03-15T08:07:57.401Z,98018.19
2023-03-15T08:10:30.610Z,98014.19
2023-03-15T08:13:03.633Z,98013.41
2023-03-15T08:15:36.646Z,98016.84
2023-03-15T08:18:09.769Z,98021.56
2023-03-15T08:20:42.810Z,98007.22
2023-03-15T08:23:17.269Z,98014.72
2023-03-15T08:25:51.202Z,98022.22
2023-03-15T08:28:24.193Z,98014.94
2023-03-15T08:30:57.246Z,98017.13
2023-03-15T08:33:30.464Z,98018.34
2023-03-15T08:36:03.663Z,98012.09
2023-03-15T08:38:38.742Z,98013.09
2023-03-15T08:41:11.841Z,98016.06
2023-03-15T08:43:44.913Z,98028.66
2023-03-15T08:46:18.033Z,98014.91
2023-03-15T08:48:51.102Z,98020.13
2023-03-15T08:51:25.481Z,98025.22
2023-03-15T08:53:59.863Z,98025.03
2023-03-15T08:56:33.676Z,98028.66
2023-03-15T08:59:06.704Z,98024.00
2023-03-15T09:01:40.844Z,98023.16
2023-03-15T09:04:14.058Z,98019.19
2023-03-15T09:06:47.098Z,98020.53
2023-03-15T09:09:21.573Z,98033.00
2023-03-15T09:11:55.512Z,98038.66
2023-03-15T09:14:28.997Z,98031.59
2023-03-15T09:17:02.085Z,98033.09
2023-03-15T09:19:35.102Z,98039.28
2023-03-15T09:22:16.967Z,98037.31
2023-03-15T09:24:58.065Z,98033.59
2023-03-15T09:27:31.607Z,98047.34
2023-03-15T09:30:06.277Z,98044.44
2023-03-15T09:32:39.379Z,98042.88
2023-03-15T09:35:17.425Z,98038.38
2023-03-15T09:37:51.939Z,98049.34
2023-03-15T09:40:30.144Z,98056.28
2023-03-15T09:43:16.868Z,98043.53
2023-03-15T09:46:04.551Z,98035.44
2023-03-15T09:48:43.939Z,98037.91
2023-03-15T09:51:30.273Z,98043.50
2023-03-15T09:54:06.837Z,98037.59
2023-03-15T09:56:45.744Z,98035.56
2023-03-15T09:59:23.084Z,98035.06
2023-03-15T10:01:57.955Z,98030.84
2023-03-15T10:04:37.217Z,98034.06
2023-03-15T10:07:16.478Z,98040.38
2023-03-15T10:09:49.580Z,98040.56
2023-03-15T10:12:30.971Z,98041.75
2023-03-15T10:15:36.528Z,98039.97
2023-03-15T10:18:28.033Z,98033.06
2023-03-15T10:21:10.371Z,98032.28
2023-03-15T10:23:51.172Z,98034.75
2023-03-15T10:26:29.316Z,98034.44
2023-03-15T10:29:10.216Z,98041.09
2023-03-15T10:31:47.557Z,98036.13
2023-03-15T10:34:21.958Z,98043.59
2023-03-15T10:36:55.477Z,98043.19
2023-03-15T10:39:28.643Z,98042.72
2023-03-15T10:42:01.633Z,98038.28
2023-03-15T10:44:38.659Z,98038.59
2023-03-15T10:47:23.654Z,98034.88
2023-03-15T10:50:00.333Z,98042.31
2023-03-15T10:52:37.421Z,98040.13
2023-03-15T10:55:16.545Z,98042.88
2023-03-15T10:57:55.995Z,98042.88
2023-03-15T11:00:33.835Z,98048.66
2023-03-15T11:03:13.175Z,98038.06
2023-03-15T11:05:49.247Z,98040.81
2023-03-15T11:08:25.325Z,98036.19
2023-03-15T11:11:00.838Z,98039.22
2023-03-15T11:13:36.075Z,98037.91
2023-03-15T11:16:22.923Z,98029.09
2023-03-15T11:18:59.908Z,98027.72
2023-03-15T11:21:35.345Z,98024.59
2023-03-15T11:24:10.996Z,98014.84
2023-03-15T11:26:51.461Z,98016.69
2023-03-15T11:29:28.733Z,98011.13
2023-03-15T11:32:13.771Z,98010.03
2023-03-15T11:34:53.983Z,98016.53
2023-03-15T11:37:34.323Z,98008.28
2023-03-15T11:40:17.541Z,98012.28
2023-03-15T11:42:56.081Z,98005.03
2023-03-15T11:45:35.862Z,98013.44
2023-03-15T11:48:19.194Z,98017.00
2023-03-15T11:50:54.980Z,98020.03
2023-03-15T11:53:35.625Z,98021.47
2023-03-15T11:56:24.789Z,98019.72
2023-03-15T11:59:08.560Z,98024.22
2023-03-15T12:01:48.411Z,98024.53
2023-03-15T12:04:45.132Z,98032.75
2023-03-15T12:07:39.798Z,98030.25
2023-03-15T12:10:39.237Z,98023.28
2023-03-15T12:13:27.608Z,98023.50
2023-03-15T12:16:00.749Z,98022.63
2023-03-15T12:18:41.175Z,98018.19
2023-03-15T12:21:23.609Z,98027.59
2023-03-15T12:24:05.191Z,98023.97
2023-03-15T12:26:45.328Z,98028.31
2023-03-15T12:29:25.639Z,98029.31
2023-03-15T12:32:08.639Z,98032.44
2023-03-15T12:34:49.228Z,98025.13
2023-03-15T12:37:28.683Z,98029.25
2023-03-15T12:40:26.558Z,98026.81
2023-03-15T12:43:04.740Z,98031.59
2023-03-15T12:45:55.726Z,98031.34
2023-03-15T12:48:29.899Z,98026.38
2023-03-15T12:51:14.476Z,98030.84
2023-03-15T12:53:53.986Z,98027.50
2023-03-15T12:56:54.251Z,98030.16
2023-03-15T12:59:34.313Z,98051.13
2023-03-15T13:02:42.199Z,98052.50
2023-03-15T13:05:24.599Z,98047.78
2023-03-15T13:08:09.499Z,98056.41
2023-03-15T13:11:00.661Z,98056.41
2023-03-15T13:14:04.521Z,98055.53
2023-03-15T13:16:45.355Z,98067.47
2023-03-15T13:19:23.550Z,98066.28
2023-03-15T13:22:15.127Z,98056.44
2023-03-15T13:24:58.644Z,98063.72
2023-03-15T13:27:48.672Z,98076.03
2023-03-15T13:30:41.321Z,98071.66
2023-03-15T13:33:23.148Z,98077.47
2023-03-15T13:35:58.819Z,98083.50
2023-03-15T13:38:34.378Z,98086.69
2023-03-15T13:41:17.429Z,98092.41
2023-03-15T13:43:53.900Z,98086.38
2023-03-15T13:46:31.084Z,98095.81
2023-03-15T13:49:04.123Z,98095.81
2023-03-15T13:51:39.120Z,98089.53
2023-03-15T13:54:18.465Z,98087.31
2023-03-15T13:57:03.605Z,98080.84
2023-03-15T13:59:43.862Z,98079.84
2023-03-15T14:02:21.202Z,98080.00
2023-03-15T14:05:03.006Z,98075.97
2023-03-15T14:07:40.005Z,98072.84
2023-03-15T14:10:31.830Z,98083.63
2023-03-15T14:13:24.512Z,98075.50
2023-03-15T14:16:02.482Z,98072.88
2023-03-15T14:18:37.862Z,98072.19
2023-03-15T14:21:16.626Z,98073.28
2023-03-15T14:23:50.489Z,98073.00
2023-03-15T14:26:29.077Z,98075.50
2023-03-15T14:29:08.496Z,98082.81
2023-03-15T14:31:50.697Z,98085.81
2023-03-15T14:34:33.537Z,98086.81
2023-03-15T14:37:28.985Z,98089.31
2023-03-15T14:40:20.119Z,98085.75
2023-03-15T14:42:53.200Z,98086.53
2023-03-15T14:45:27.424Z,98085.50
2023-03-15T14:48:05.461Z,98075.09
2023-03-15T14:50:40.801Z,98076.72
2023-03-15T14:53:18.597Z,98080.44
2023-03-15T14:55:51.787Z,98077.34
2023-03-15T14:58:24.951Z,98075.66
2023-03-15T15:00:58.871Z,98072.25
2023-03-15T15:03:39.171Z,98065.22
2023-03-15T15:06:15.643Z,98066.00
2023-03-15T15:08:50.128Z,98058.19
2023-03-15T15:11:23.244Z,98057.53
2023-03-15T15:13:56.688Z,98051.13
2023-03-15T15:16:29.816Z,98067.59
2023-03-15T15:19:04.661Z,98057.13
2023-03-15T15:21:39.227Z,98048.94
2023-03-15T15:24:16.909Z,98061.56
2023-03-15T15:26:50.058Z,98067.72
2023-03-15T15:29:24.129Z,98071.44
2023-03-15T15:31:57.225Z,98075.84
2023-03-15T15:34:33.949Z,98080.69
2023-03-15T15:37:07.011Z,98092.22
2023-03-15T15:39:41.498Z,98089.22
2023-03-15T15:42:14.537Z,98096.69
2023-03-15T15:44:47.542Z,98091.44
2023-03-15T15:47:20.576Z,98086.13
2023-03-15T15:49:54.935Z,98090.22
2023-03-15T15:52:27.973Z,98090.47
2023-03-15T15:55:02.266Z,98097.28
2023-03-15T15:57:35.319Z,98104.22
2023-03-15T16:00:14.020Z,98099.56
2023-03-15T16:02:47.423Z,98106.47
2023-03-15T16:05:24.074Z,98114.09
2023-03-15T16:08:01.492Z,98119.97
2023-03-15T16:10:35.376Z,98124.72
2023-03-15T16:13:11.740Z,98130.94
2023-03-15T16:15:45.143Z,98148.13
2023-03-15T16:18:18.256Z,98150.00
2023-03-15T16:20:53.018Z,98154.06
2023-03-15T16:23:26.893Z,98151.16
2023-03-15T16:26:00.026Z,98159.03
2023-03-15T16:28:33.222Z,98165.56
2023-03-15T16:31:06.569Z,98160.66
2023-03-15T16:33:39.777Z,98168.03
2023-03-15T16:36:20.710Z,98166.66
2023-03-15T16:38:53.739Z,98162.34
2023-03-15T16:41:26.920Z,98163.38
2023-03-15T16:44:01.271Z,98161.59
2023-03-15T16:46:34.385Z,98169.06
2023-03-15T16:49:07.708Z,98160.34
2023-03-15T16:51:46.021Z,98179.31
2023-03-15T16:54:38.273Z,98168.66
2023-03-15T16:57:19.797Z,98172.53
2023-03-15T16:59:53.290Z,98180.13
2023-03-15T17:02:28.929Z,98178.22
2023-03-15T17:05:01.957Z,98181.41
2023-03-15T17:07:40.371Z,98181.63
2023-03-15T17:10:23.098Z,98179.63
2023-03-15T17:12:57.632Z,98188.00
2023-03-15T17:15:31.552Z,98194.06
2023-03-15T17:18:04.881Z,98195.34
2023-03-15T17:20:38.178Z,98206.09
2023-03-15T17:23:13.482Z,98218.41
2023-03-15T17:25:46.586Z,98225.22
2023-03-15T17:28:19.943Z,98226.13
2023-03-15T17:30:59.801Z,98220.69
2023-03-15T17:33:42.485Z,98224.31
2023-03-15T17:36:19.541Z,98228.16
2023-03-15T17:38:55.360Z,98228.00
2023-03-15T17:41:31.433Z,98232.19
2023-03-15T17:44:05.211Z,98233.06
2023-03-15T17:46:38.355Z,98230.91
2023-03-15T17:49:13.242Z,98235.59
2023-03-15T17:51:46.576Z,98244.06
2023-03-15T17:54:22.335Z,98249.75
2023-03-15T17:56:56.879Z,98256.94
2023-03-15T17:59:29.888Z,98263.25
2023-03-15T18:02:02.999Z,98270.31
2023-03-15T18:04:36.682Z,98268.78
2023-03-15T18:07:09.772Z,98267.91
2023-03-15T18:09:44.093Z,98273.31
2023-03-15T18:12:17.956Z,98263.91
2023-03-15T18:14:50.978Z,98268.44
2023-03-15T18:17:23.955Z,98275.91
2023-03-15T18:19:56.974Z,98269.41
2023-03-15T18:22:30.060Z,98274.81
2023-03-15T18:25:05.040Z,98277.34
2023-03-15T18:27:38.078Z,98280.75
2023-03-15T18:30:13.348Z,98281.84
2023-03-15T18:32:47.074Z,98285.88
2023-03-15T18:35:23.532Z,98283.94
2023-03-15T18:37:57.539Z,98287.75
2023-03-15T18:40:34.667Z,98278.84
2023-03-15T18:43:07.758Z,98283.66
2023-03-15T18:45:40.846Z,98285.34
2023-03-15T18:48:13.943Z,98287.31
2023-03-15T18:50:47.108Z,98284.44
2023-03-15T18:53:20.186Z,98283.75
2023-03-15T18:55:54.631Z,98285.09
2023-03-15T18:58:27.738Z,98290.63
2023-03-15T19:01:01.069Z,98294.91
2023-03-15T19:03:34.124Z,98298.19
2023-03-15T19:06:09.702Z,98297.72
2023-03-15T19:08:43.005Z,98299.53
2023-03-15T19:11:17.368Z,98300.81
2023-03-15T19:13:51.187Z,98292.88
2023-03-15T19:16:25.326Z,98295.72
2023-03-15T19:18:58.322Z,98289.03
2023-03-15T19:21:31.382Z,98297.00
2023-03-15T19:24:04.427Z,98299.34
2023-03-15T19:26:38.817Z,98295.47
2023-03-15T19:29:11.886Z,98293.22
2023-03-15T19:31:45.084Z,98299.75
2023-03-15T19:34:18.182Z,98296.84
2023-03-15T19:36:51.601Z,98293.16
2023-03-15T19:39:24.694Z,98299.47
2023-03-15T19:41:59.152Z,98301.66
2023-03-15T19:44:32.521Z,98298.75
2023-03-15T19:47:05.529Z,98316.00
2023-03-15T19:49:38.566Z,98321.41
2023-03-15T19:52:14.358Z,98322.88
2023-03-15T19:54:48.549Z,98319.91
2023-03-15T19:57:23.397Z,98314.84
2023-03-15T19:59:56.517Z,98323.16
2023-03-15T20:02:31.882Z,98313.81
2023-03-15T20:05:08.497Z,98311.28
2023-03-15T20:07:42.514Z,98329.47
2023-03-15T20:10:16.105Z,98327.38
2023-03-15T20:12:50.484Z,98327.59
2023-03-15T20:15:23.604Z,98331.81
2023-03-15T20:17:56.600Z,98336.25
2023-03-15T20:20:29.685Z,98331.53
2023-03-15T20:23:03.634Z,98334.56
2023-03-15T20:25:37.016Z,98339.47
2023-03-15T20:28:11.957Z,98335.47
2023-03-15T20:30:45.065Z,98336.41
2023-03-15T20:33:18.118Z,98333.59
2023-03-15T20:35:51.213Z,98327.66
2023-03-15T20:38:24.338Z,98325.88
2023-03-15T20:40:58.310Z,98336.00
2023-03-15T20:43:33.383Z,98335.41
2023-03-15T20:46:06.866Z,98339.88
2023-03-15T20:48:40.457Z,98325.03
2023-03-15T20:51:13.489Z,98335.72
2023-03-15T20:53:46.523Z,98338.13
2023-03-15T20:56:22.025Z,98342.59
2023-03-15T20:58:56.417Z,98346.13
2023-03-15T21:01:29.449Z,98347.47
2023-03-15T21:04:02.512Z,98346.28
2023-03-15T21:06:35.663Z,98342.00
2023-03-15T21:09:08.710Z,98347.94
2023-03-15T21:11:42.512Z,98349.41
2023-03-15T21:14:17.015Z,98351.81
2023-03-15T21:16:50.071Z,98352.53
2023-03-15T21:19:24.751Z,98360.41
2023-03-15T21:21:59.046Z,98357.75
2023-03-15T21:24:40.658Z,98357.28
2023-03-15T21:27:16.944Z,98353.13
2023-03-15T21:29:51.310Z,98360.97
2023-03-15T21:32:24.921Z,98363.06
2023-03-15T21:34:58.033Z,98360.97
2023-03-15T21:37:31.125Z,98359.63
2023-03-15T21:40:06.383Z,98364.56
2023-03-15T21:42:39.901Z,98361.44
2023-03-15T21:45:14.580Z,98357.28
2023-03-15T21:47:47.640Z,98357.41
2023-03-15T21:50:23.186Z,98357.09
2023-03-15T21:52:56.482Z,98364.53
2023-03-15T21:55:32.385Z,98360.97
2023-03-15T21:58:05.831Z,98356.50
2023-03-15T22:00:40.255Z,98361.84
2023-03-15T22:03:14.092Z,98357.69
2023-03-15T22:05:47.337Z,98366.28
2023-03-15T22:08:21.201Z,98363.75
2023-03-15T22:10:55.284Z,98374.28
2023-03-15T22:13:30.102Z,98371.84
2023-03-15T22:16:05.084Z,98367.50
2023-03-15T22:18:38.224Z,98368.47
2023-03-15T22:21:11.318Z,98370.84
2023-03-15T22:23:45.091Z,98368.94
2023-03-15T22:26:18.141Z,98380.38
2023-03-15T22:28:52.534Z,98375.44
2023-03-15T22:31:27.001Z,98370.00
2023-03-15T22:34:00.300Z,98372.16
2023-03-15T22:36:34.429Z,98372.63
2023-03-15T22:39:07.619Z,98370.59
2023-03-15T22:41:40.748Z,98373.59
2023-03-15T22:44:13.771Z,98379.53
2023-03-15T22:46:48.265Z,98379.84
2023-03-15T22:49:21.288Z,98375.00
2023-03-15T22:51:54.325Z,98374.09
2023-03-15T22:54:27.377Z,98370.28
2023-03-15T22:57:01.317Z,98366.25
2023-03-15T22:59:34.499Z,98368.19
2023-03-15T23:02:09.159Z,98366.88
2023-03-15T23:04:45.179Z,98358.41
2023-03-15T23:07:18.496Z,98357.47
2023-03-15T23:09:52.242Z,98354.63
2023-03-15T23:12:35.870Z,98350.66
2023-03-15T23:15:12.013Z,98352.41
2023-03-15T23:17:47.034Z,98344.47
2023-03-15T23:20:20.772Z,98348.53
2023-03-15T23:22:53.778Z,98350.44
2023-03-15T23:25:28.865Z,98346.59
2023-03-15T23:28:01.912Z,98340.69
2023-03-15T23:30:36.349Z,98347.78
2023-03-15T23:33:10.882Z,98345.09
2023-03-15T23:35:44.228Z,98341.34
2023-03-15T23:38:17.407Z,98342.78
2023-03-15T23:40:55.398Z,98345.13
2023-03-15T23:43:28.964Z,98342.75
2023-03-15T23:46:04.801Z,98345.13
2023-03-15T23:48:39.365Z,98345.63
2023-03-15T23:51:13.039Z,98343.13
2023-03-15T23:53:46.143Z,98339.00
2023-03-15T23:56:19.331Z,98340.16
2023-03-15T23:58:52.451Z,98342.53
